createdAt,value
2017-10-23T00:00:00.533Z,100864
2017-10-23T00:02:28.778Z,100865
2017-10-23T00:04:57.629Z,100864
2017-10-23T00:07:25.715Z,100856
2017-10-23T00:09:53.830Z,100860
2017-10-23T00:12:21.924Z,100864
2017-10-23T00:14:50.804Z,100867
2017-10-23T00:17:18.903Z,100875
2017-10-23T00:19:46.987Z,100867
2017-10-23T00:22:15.151Z,100880
2017-10-23T00:24:43.241Z,100871
2017-10-23T00:27:11.314Z,100872
2017-10-23T00:29:39.463Z,100876
2017-10-23T00:32:07.548Z,100884
2017-10-23T00:34:35.620Z,100876
2017-10-23T00:37:03.719Z,100881
2017-10-23T00:39:32.560Z,100887
2017-10-23T00:42:00.655Z,100886
2017-10-23T00:44:28.751Z,100893
2017-10-23T00:46:56.851Z,100883
2017-10-23T00:49:24.953Z,100880
2017-10-23T00:51:53.024Z,100887
2017-10-23T00:54:21.131Z,100883
2017-10-23T00:56:49.224Z,100887
2017-10-23T00:59:17.308Z,100893
2017-10-23T01:01:45.551Z,100882
2017-10-23T01:04:13.640Z,100887
2017-10-23T01:06:41.723Z,100887
2017-10-23T01:09:10.592Z,100890
2017-10-23T01:11:38.697Z,100893
2017-10-23T01:14:06.776Z,100883
2017-10-23T01:16:35.213Z,100887
2017-10-23T01:19:03.309Z,100882
2017-10-23T01:21:31.409Z,100888
2017-10-23T01:23:59.492Z,100890
2017-10-23T01:26:27.587Z,100895
2017-10-23T01:28:55.691Z,100882
2017-10-23T01:31:24.553Z,100877
2017-10-23T01:33:52.711Z,100870
2017-10-23T01:36:20.911Z,100882
2017-10-23T01:38:49.360Z,100880
2017-10-23T01:41:17.928Z,100886
2017-10-23T01:43:45.996Z,100891
2017-10-23T01:46:14.110Z,100889
2017-10-23T01:48:42.204Z,100895
2017-10-23T01:51:11.102Z,100895
2017-10-23T01:53:39.971Z,100888
2017-10-23T01:56:08.080Z,100894
2017-10-23T01:58:36.177Z,100879
2017-10-23T02:01:04.258Z,100888
2017-10-23T02:03:33.148Z,100885
2017-10-23T02:06:01.740Z,100887
2017-10-23T02:08:29.809Z,100891
2017-10-23T02:10:58.619Z,100890
2017-10-23T02:13:27.184Z,100891
2017-10-23T02:15:55.267Z,100901
2017-10-23T02:18:23.372Z,100906
2017-10-23T02:20:51.596Z,100897
2017-10-23T02:23:19.705Z,100904
2017-10-23T02:25:47.808Z,100902
2017-10-23T02:28:15.884Z,100895
2017-10-23T02:30:43.964Z,100895
2017-10-23T02:33:12.058Z,100912
2017-10-23T02:35:40.160Z,100910
2017-10-23T02:38:08.246Z,100914
2017-10-23T02:40:36.330Z,100904
2017-10-23T02:43:04.425Z,100902
2017-10-23T02:45:32.504Z,100916
2017-10-23T02:48:00.607Z,100906
2017-10-23T02:50:28.683Z,100915
2017-10-23T02:52:56.784Z,100908
2017-10-23T02:55:24.890Z,100909
2017-10-23T02:57:52.983Z,100916
2017-10-23T03:00:21.087Z,100917
2017-10-23T03:02:49.203Z,100915
2017-10-23T03:05:17.322Z,100919
2017-10-23T03:07:45.396Z,100925
2017-10-23T03:10:13.475Z,100915
2017-10-23T03:12:41.580Z,100931
2017-10-23T03:15:09.745Z,100935
2017-10-23T03:17:37.852Z,100936
2017-10-23T03:20:06.045Z,100936
2017-10-23T03:22:34.124Z,100939
2017-10-23T03:25:02.512Z,100931
2017-10-23T03:27:31.675Z,100944
2017-10-23T03:30:00.129Z,100940
2017-10-23T03:32:28.216Z,100940
2017-10-23T03:34:56.510Z,100953
2017-10-23T03:37:24.616Z,100949
2017-10-23T03:39:52.702Z,100949
2017-10-23T03:42:22.084Z,100954
2017-10-23T03:44:50.199Z,100953
2017-10-23T03:47:18.305Z,100954
2017-10-23T03:49:46.789Z,100961
2017-10-23T03:52:14.868Z,100965
2017-10-23T03:54:42.975Z,100957
2017-10-23T03:57:11.834Z,100953
2017-10-23T03:59:39.935Z,100975
2017-10-23T04:02:09.201Z,100971
2017-10-23T04:04:37.305Z,100972
2017-10-23T04:07:06.196Z,100969
2017-10-23T04:09:35.093Z,100965
2017-10-23T04:12:03.949Z,100971
2017-10-23T04:14:32.053Z,100977
2017-10-23T04:17:00.135Z,100978
2017-10-23T04:19:29.211Z,100966
2017-10-23T04:21:57.287Z,100971
2017-10-23T04:24:25.408Z,100963
2017-10-23T04:26:53.491Z,100980
2017-10-23T04:29:21.572Z,100985
2017-10-23T04:31:50.877Z,100983
2017-10-23T04:34:18.952Z,100978
2017-10-23T04:36:47.081Z,100979
2017-10-23T04:39:15.182Z,100974
2017-10-23T04:41:43.268Z,100968
2017-10-23T04:44:11.340Z,100975
2017-10-23T04:46:39.444Z,100970
2017-10-23T04:49:07.536Z,100978
2017-10-23T04:51:35.631Z,100979
2017-10-23T04:54:03.709Z,100986
2017-10-23T04:56:32.559Z,100990
2017-10-23T04:59:01.445Z,100988
2017-10-23T05:01:30.290Z,100985
2017-10-23T05:03:58.376Z,100994
2017-10-23T05:06:26.489Z,100987
2017-10-23T05:08:54.608Z,100987
2017-10-23T05:11:23.204Z,100997
2017-10-23T05:13:51.308Z,100979
2017-10-23T05:16:20.151Z,100987
2017-10-23T05:18:48.464Z,100988
2017-10-23T05:21:16.547Z,100985
2017-10-23T05:23:44.652Z,100991
2017-10-23T05:26:12.739Z,100986
2017-10-23T05:28:40.817Z,100982
2017-10-23T05:31:08.940Z,100986
2017-10-23T05:33:37.021Z,100986
2017-10-23T05:36:05.133Z,100978
2017-10-23T05:38:33.204Z,100986
2017-10-23T05:41:01.291Z,100981
2017-10-23T05:43:29.391Z,100989
2017-10-23T05:45:57.479Z,100993
2017-10-23T05:48:26.489Z,100988
2017-10-23T05:50:54.591Z,100997
2017-10-23T05:53:22.676Z,100994
2017-10-23T05:55:50.808Z,101004
2017-10-23T05:58:18.956Z,101007
2017-10-23T06:00:47.807Z,100998
2017-10-23T06:03:15.916Z,101008
2017-10-23T06:05:44.829Z,101014
2017-10-23T06:08:12.899Z,101022
2017-10-23T06:10:41.023Z,101028
2017-10-23T06:13:09.162Z,101030
2017-10-23T06:15:37.256Z,101024
2017-10-23T06:18:05.350Z,101031
2017-10-23T06:20:33.443Z,101035
2017-10-23T06:23:01.583Z,101037
2017-10-23T06:25:29.671Z,101025
2017-10-23T06:27:57.740Z,101034
2017-10-23T06:30:26.041Z,101038
2017-10-23T06:32:54.897Z,101034
2017-10-23T06:35:23.020Z,101032
2017-10-23T06:37:51.125Z,101046
2017-10-23T06:40:19.237Z,101033
2017-10-23T06:42:48.148Z,101043
2017-10-23T06:45:16.236Z,101043
2017-10-23T06:47:44.360Z,101049
2017-10-23T06:50:12.499Z,101039
2017-10-23T06:52:40.641Z,101042
2017-10-23T06:55:08.747Z,101034
2017-10-23T06:57:36.860Z,101054
2017-10-23T07:00:04.936Z,101045
2017-10-23T07:02:33.048Z,101048
2017-10-23T07:05:01.127Z,101039
2017-10-23T07:07:29.244Z,101051
2017-10-23T07:09:57.343Z,101047
2017-10-23T07:12:25.462Z,101055
2017-10-23T07:14:53.572Z,101063
2017-10-23T07:17:21.636Z,101056
2017-10-23T07:19:49.772Z,101061
2017-10-23T07:22:17.848Z,101059
2017-10-23T07:24:45.939Z,101060
2017-10-23T07:27:14.066Z,101063
2017-10-23T07:29:42.132Z,101071
2017-10-23T07:32:10.242Z,101062
2017-10-23T07:34:38.324Z,101067
2017-10-23T07:37:06.432Z,101062
2017-10-23T07:39:34.530Z,101068
2017-10-23T07:42:02.613Z,101067
2017-10-23T07:44:30.744Z,101077
2017-10-23T07:46:59.584Z,101072
2017-10-23T07:49:27.714Z,101069
2017-10-23T07:51:56.559Z,101074
2017-10-23T07:54:24.798Z,101077
2017-10-23T07:56:52.971Z,101078
2017-10-23T07:59:21.721Z,101078
2017-10-23T08:01:49.865Z,101073
2017-10-23T08:04:17.982Z,101081
2017-10-23T08:06:46.852Z,101081
2017-10-23T08:09:14.956Z,101085
2017-10-23T08:11:43.819Z,101071
2017-10-23T08:14:11.928Z,101077
2017-10-23T08:16:40.029Z,101077
2017-10-23T08:19:08.164Z,101092
2017-10-23T08:21:36.292Z,101079
2017-10-23T08:24:04.381Z,101090
2017-10-23T08:26:32.490Z,101087
2017-10-23T08:29:00.594Z,101087
2017-10-23T08:31:28.691Z,101093
2017-10-23T08:33:56.776Z,101092
2017-10-23T08:36:24.895Z,101092
2017-10-23T08:38:54.103Z,101096
2017-10-23T08:41:22.191Z,101108
2017-10-23T08:43:50.276Z,101108
2017-10-23T08:46:18.640Z,101106
2017-10-23T08:48:47.124Z,101108
2017-10-23T08:51:15.252Z,101110
2017-10-23T08:53:44.139Z,101110
2017-10-23T08:56:12.336Z,101111
2017-10-23T08:58:40.434Z,101095
2017-10-23T09:01:08.869Z,101101
2017-10-23T09:03:37.986Z,101111
2017-10-23T09:06:06.112Z,101117
2017-10-23T09:08:34.192Z,101126
2017-10-23T09:11:02.673Z,101128
2017-10-23T09:13:31.964Z,101122
2017-10-23T09:16:00.077Z,101119
2017-10-23T09:18:28.593Z,101118
2017-10-23T09:20:56.725Z,101121
2017-10-23T09:23:24.828Z,101116
2017-10-23T09:25:52.935Z,101115
2017-10-23T09:28:21.448Z,101116
2017-10-23T09:30:49.866Z,101123
2017-10-23T09:33:17.972Z,101128
2017-10-23T09:35:46.077Z,101117
2017-10-23T09:38:14.228Z,101120
2017-10-23T09:40:42.595Z,101119
2017-10-23T09:43:11.047Z,101114
2017-10-23T09:45:39.370Z,101128
2017-10-23T09:48:08.221Z,101117
2017-10-23T09:50:36.328Z,101118
2017-10-23T09:53:05.176Z,101116
2017-10-23T09:55:33.601Z,101117
2017-10-23T09:58:02.513Z,101118
2017-10-23T10:00:30.982Z,101117
2017-10-23T10:02:59.860Z,101120
2017-10-23T10:05:27.944Z,101125
2017-10-23T10:07:56.058Z,101113
2017-10-23T10:10:24.140Z,101134
2017-10-23T10:12:52.235Z,101133
2017-10-23T10:15:20.319Z,101135
2017-10-23T10:17:48.429Z,101163
2017-10-23T10:20:16.574Z,101159
2017-10-23T10:22:45.651Z,101155
2017-10-23T10:25:13.749Z,101159
2017-10-23T10:27:42.669Z,101148
2017-10-23T10:30:10.752Z,101144
2017-10-23T10:32:39.040Z,101153
2017-10-23T10:35:07.191Z,101144
2017-10-23T10:37:35.357Z,101148
2017-10-23T10:40:03.484Z,101150
2017-10-23T10:42:31.590Z,101152
2017-10-23T10:44:59.704Z,101155
2017-10-23T10:47:27.771Z,101164
2017-10-23T10:49:55.857Z,101163
2017-10-23T10:52:23.956Z,101170
2017-10-23T10:54:52.824Z,101166
2017-10-23T10:57:20.957Z,101164
2017-10-23T10:59:49.037Z,101164
2017-10-23T11:02:17.187Z,101168
2017-10-23T11:04:45.292Z,101167
2017-10-23T11:07:13.397Z,101164
2017-10-23T11:09:41.485Z,101160
2017-10-23T11:12:10.477Z,101171
2017-10-23T11:14:38.556Z,101176
2017-10-23T11:17:07.457Z,101173
2017-10-23T11:19:36.322Z,101168
2017-10-23T11:22:04.423Z,101158
2017-10-23T11:24:32.540Z,101154
2017-10-23T11:27:00.657Z,101154
2017-10-23T11:29:29.532Z,101146
2017-10-23T11:31:57.637Z,101163
2017-10-23T11:34:25.751Z,101147
2017-10-23T11:36:53.848Z,101154
2017-10-23T11:39:21.941Z,101153
2017-10-23T11:41:50.048Z,101157
2017-10-23T11:44:18.945Z,101160
2017-10-23T11:46:47.074Z,101157
2017-10-23T11:49:15.935Z,101147
2017-10-23T11:51:44.033Z,101148
2017-10-23T11:54:12.900Z,101154
2017-10-23T11:56:41.004Z,101153
2017-10-23T11:59:09.097Z,101158
2017-10-23T12:01:37.188Z,101144
2017-10-23T12:04:05.288Z,101147
2017-10-23T12:06:33.385Z,101143
2017-10-23T12:09:01.493Z,101154
2017-10-23T12:11:29.592Z,101150
2017-10-23T12:13:57.952Z,101160
2017-10-23T12:16:26.111Z,101144
2017-10-23T12:18:54.232Z,101159
2017-10-23T12:21:22.536Z,101155
2017-10-23T12:23:51.392Z,101153
2017-10-23T12:26:19.588Z,101160
2017-10-23T12:28:48.453Z,101141
2017-10-23T12:31:16.543Z,101147
2017-10-23T12:33:44.665Z,101151
2017-10-23T12:36:12.767Z,101152
2017-10-23T12:38:40.867Z,101142
2017-10-23T12:41:09.104Z,101156
2017-10-23T12:43:37.193Z,101157
2017-10-23T12:46:05.555Z,101159
2017-10-23T12:48:33.649Z,101157
2017-10-23T12:51:01.772Z,101151
2017-10-23T12:53:29.908Z,101164
2017-10-23T12:55:58.835Z,101162
2017-10-23T12:58:26.948Z,101156
2017-10-23T13:00:55.689Z,101152
2017-10-23T13:03:23.822Z,101161
2017-10-23T13:05:51.948Z,101171
2017-10-23T13:08:20.500Z,101162
2017-10-23T13:10:48.612Z,101161
2017-10-23T13:13:16.724Z,101162
2017-10-23T13:15:44.868Z,101163
2017-10-23T13:18:12.964Z,101163
2017-10-23T13:20:41.051Z,101156
2017-10-23T13:23:09.166Z,101168
2017-10-23T13:25:37.284Z,101164
2017-10-23T13:28:05.371Z,101165
2017-10-23T13:30:33.460Z,101161
2017-10-23T13:33:02.323Z,101173
2017-10-23T13:35:30.430Z,101166
2017-10-23T13:37:58.513Z,101169
2017-10-23T13:40:26.681Z,101176
2017-10-23T13:42:54.797Z,101175
2017-10-23T13:45:23.440Z,101164
2017-10-23T13:47:51.661Z,101164
2017-10-23T13:50:19.782Z,101173
2017-10-23T13:52:47.903Z,101168
2017-10-23T13:55:16.074Z,101178
2017-10-23T13:57:44.155Z,101177
2017-10-23T14:00:12.267Z,101178
2017-10-23T14:02:41.188Z,101177
2017-10-23T14:05:09.278Z,101182
2017-10-23T14:07:37.372Z,101184
2017-10-23T14:10:05.509Z,101187
2017-10-23T14:12:34.083Z,101181
2017-10-23T14:15:02.158Z,101189
2017-10-23T14:17:30.260Z,101191
2017-10-23T14:19:59.323Z,101192
2017-10-23T14:22:27.419Z,101187
2017-10-23T14:24:55.545Z,101195
2017-10-23T14:27:23.633Z,101196
2017-10-23T14:29:51.730Z,101203
2017-10-23T14:32:19.932Z,101200
2017-10-23T14:34:48.079Z,101206
2017-10-23T14:37:16.215Z,101198
2017-10-23T14:39:44.369Z,101210
2017-10-23T14:42:13.547Z,101208
2017-10-23T14:44:41.648Z,101209
2017-10-23T14:47:09.809Z,101208
2017-10-23T14:49:38.759Z,101210
2017-10-23T14:52:06.931Z,101219
2017-10-23T14:54:35.072Z,101217
2017-10-23T14:57:03.164Z,101222
2017-10-23T14:59:31.387Z,101223
2017-10-23T15:01:59.564Z,101232
2017-10-23T15:04:27.744Z,101234
2017-10-23T15:06:55.833Z,101226
2017-10-23T15:09:24.726Z,101226
2017-10-23T15:11:53.635Z,101229
2017-10-23T15:14:21.928Z,101230
2017-10-23T15:16:50.077Z,101228
2017-10-23T15:19:18.233Z,101224
2017-10-23T15:21:47.084Z,101234
2017-10-23T15:24:15.217Z,101229
2017-10-23T15:26:43.320Z,101233
2017-10-23T15:29:11.432Z,101237
2017-10-23T15:31:39.576Z,101235
2017-10-23T15:34:07.668Z,101241
2017-10-23T15:36:35.791Z,101240
2017-10-23T15:39:03.911Z,101251
2017-10-23T15:41:31.996Z,101246
2017-10-23T15:44:00.167Z,101241
2017-10-23T15:46:28.273Z,101250
2017-10-23T15:48:56.643Z,101255
2017-10-23T15:51:24.787Z,101248
2017-10-23T15:53:53.815Z,101252
2017-10-23T15:56:21.979Z,101251
2017-10-23T15:58:50.816Z,101256
2017-10-23T16:01:18.983Z,101253
2017-10-23T16:03:47.092Z,101260
2017-10-23T16:06:15.232Z,101261
2017-10-23T16:08:43.328Z,101269
2017-10-23T16:11:11.429Z,101271
2017-10-23T16:13:40.334Z,101269
2017-10-23T16:16:08.491Z,101265
2017-10-23T16:18:38.196Z,101264
2017-10-23T16:21:07.126Z,101273
2017-10-23T16:23:35.272Z,101274
2017-10-23T16:26:03.397Z,101277
2017-10-23T16:28:31.551Z,101277
2017-10-23T16:31:00.641Z,101284
2017-10-23T16:33:28.747Z,101279
2017-10-23T16:35:57.738Z,101289
2017-10-23T16:38:25.924Z,101292
2017-10-23T16:40:54.009Z,101294
2017-10-23T16:43:22.262Z,101301
2017-10-23T16:45:50.512Z,101293
2017-10-23T16:48:18.632Z,101304
2017-10-23T16:50:46.753Z,101308
2017-10-23T16:53:14.854Z,101318
2017-10-23T16:55:42.937Z,101315
2017-10-23T16:58:11.084Z,101306
2017-10-23T17:00:40.707Z,101312
2017-10-23T17:03:08.808Z,101315
2017-10-23T17:05:36.912Z,101320
2017-10-23T17:08:05.615Z,101318
2017-10-23T17:10:33.699Z,101330
2017-10-23T17:13:01.854Z,101319
2017-10-23T17:15:29.942Z,101325
2017-10-23T17:17:58.044Z,101332
2017-10-23T17:20:26.132Z,101332
2017-10-23T17:22:54.246Z,101339
2017-10-23T17:25:22.330Z,101347
2017-10-23T17:27:50.452Z,101349
2017-10-23T17:30:19.301Z,101351
2017-10-23T17:32:47.441Z,101351
2017-10-23T17:35:15.584Z,101352
2017-10-23T17:37:44.078Z,101364
2017-10-23T17:40:12.269Z,101366
2017-10-23T17:42:41.300Z,101357
2017-10-23T17:45:09.408Z,101365
2017-10-23T17:47:38.349Z,101367
2017-10-23T17:50:06.428Z,101367
2017-10-23T17:52:34.508Z,101369
2017-10-23T17:55:02.645Z,101379
2017-10-23T17:57:30.791Z,101368
2017-10-23T17:59:59.448Z,101367
2017-10-23T18:02:27.535Z,101369
2017-10-23T18:04:55.998Z,101366
2017-10-23T18:07:24.100Z,101372
2017-10-23T18:09:52.180Z,101383
2017-10-23T18:12:20.463Z,101376
2017-10-23T18:14:49.322Z,101376
2017-10-23T18:17:17.404Z,101378
2017-10-23T18:19:45.548Z,101379
2017-10-23T18:22:13.629Z,101382
2017-10-23T18:24:42.026Z,101383
2017-10-23T18:27:10.115Z,101379
2017-10-23T18:29:38.223Z,101386
2017-10-23T18:32:06.372Z,101382
2017-10-23T18:34:34.477Z,101385
2017-10-23T18:37:02.616Z,101394
2017-10-23T18:39:30.785Z,101388
2017-10-23T18:41:59.684Z,101387
2017-10-23T18:44:28.756Z,101383
2017-10-23T18:46:56.945Z,101392
2017-10-23T18:49:25.032Z,101386
2017-10-23T18:51:53.128Z,101392
2017-10-23T18:54:21.300Z,101395
2017-10-23T18:56:49.411Z,101392
2017-10-23T18:59:17.653Z,101388
2017-10-23T19:01:45.931Z,101407
2017-10-23T19:04:14.059Z,101400
2017-10-23T19:06:43.082Z,101404
2017-10-23T19:09:11.272Z,101403
2017-10-23T19:11:39.526Z,101399
2017-10-23T19:14:07.637Z,101406
2017-10-23T19:16:35.875Z,101392
2017-10-23T19:19:04.005Z,101402
2017-10-23T19:21:32.981Z,101410
2017-10-23T19:24:02.606Z,101408
2017-10-23T19:26:30.858Z,101403
2017-10-23T19:28:59.083Z,101410
2017-10-23T19:31:29.215Z,101407
2017-10-23T19:33:57.308Z,101412
2017-10-23T19:36:25.438Z,101408
2017-10-23T19:38:53.625Z,101417
2017-10-23T19:41:22.524Z,101405
2017-10-23T19:43:50.714Z,101417
2017-10-23T19:46:19.860Z,101422
2017-10-23T19:48:48.933Z,101414
2017-10-23T19:51:17.184Z,101414
2017-10-23T19:53:45.369Z,101401
2017-10-23T19:56:13.476Z,101410
2017-10-23T19:58:41.725Z,101402
2017-10-23T20:01:09.837Z,101409
2017-10-23T20:03:38.717Z,101421
2017-10-23T20:06:06.851Z,101413
2017-10-23T20:08:35.737Z,101416
2017-10-23T20:11:04.344Z,101419
2017-10-23T20:13:32.456Z,101414
2017-10-23T20:16:00.560Z,101420
2017-10-23T20:18:29.090Z,101425
2017-10-23T20:20:57.786Z,101424
2017-10-23T20:23:26.225Z,101425
2017-10-23T20:25:54.311Z,101445
2017-10-23T20:28:22.412Z,101434
2017-10-23T20:30:50.557Z,101445
2017-10-23T20:33:18.655Z,101452
2017-10-23T20:35:46.760Z,101450
2017-10-23T20:38:14.904Z,101455
2017-10-23T20:40:43.196Z,101452
2017-10-23T20:43:12.081Z,101442
2017-10-23T20:45:40.200Z,101440
2017-10-23T20:48:08.290Z,101439
2017-10-23T20:50:41.276Z,101443
2017-10-23T20:53:09.420Z,101448
2017-10-23T20:55:37.567Z,101445
2017-10-23T20:58:06.432Z,101446
2017-10-23T21:00:34.536Z,101450
2017-10-23T21:03:02.649Z,101456
2017-10-23T21:05:30.729Z,101449
2017-10-23T21:07:59.057Z,101444
2017-10-23T21:10:27.913Z,101447
2017-10-23T21:12:56.058Z,101459
2017-10-23T21:15:24.157Z,101459
2017-10-23T21:17:52.236Z,101452
2017-10-23T21:20:20.343Z,101447
2017-10-23T21:22:48.459Z,101453
2017-10-23T21:25:16.584Z,101456
2017-10-23T21:27:44.706Z,101449
2017-10-23T21:30:12.789Z,101460
2017-10-23T21:32:40.894Z,101456
2017-10-23T21:35:09.776Z,101451
2017-10-23T21:37:37.888Z,101448
2017-10-23T21:40:06.008Z,101449
2017-10-23T21:42:34.134Z,101451
2017-10-23T21:45:02.220Z,101462
2017-10-23T21:47:30.330Z,101447
2017-10-23T21:49:58.425Z,101453
2017-10-23T21:52:26.505Z,101448
2017-10-23T21:54:54.608Z,101445
2017-10-23T21:57:22.706Z,101458
2017-10-23T21:59:50.811Z,101451
2017-10-23T22:02:18.928Z,101454
2017-10-23T22:04:47.491Z,101455
2017-10-23T22:07:15.581Z,101454
2017-10-23T22:09:43.695Z,101450
2017-10-23T22:12:11.911Z,101454
2017-10-23T22:14:40.607Z,101461
2017-10-23T22:17:08.683Z,101448
2017-10-23T22:19:36.837Z,101451
2017-10-23T22:22:04.929Z,101457
2017-10-23T22:24:33.048Z,101463
2017-10-23T22:27:01.180Z,101459
2017-10-23T22:29:29.260Z,101461
2017-10-23T22:31:57.371Z,101470
2017-10-23T22:34:26.225Z,101472
2017-10-23T22:36:54.300Z,101471
2017-10-23T22:39:22.915Z,101463
2017-10-23T22:41:52.040Z,101463
2017-10-23T22:44:20.129Z,101467
2017-10-23T22:46:48.209Z,101467
2017-10-23T22:49:16.320Z,101466
2017-10-23T22:51:44.440Z,101456
2017-10-23T22:54:12.526Z,101456
2017-10-23T22:56:40.611Z,101467
2017-10-23T22:59:08.719Z,101457
2017-10-23T23:01:36.808Z,101460
2017-10-23T23:04:04.925Z,101465
2017-10-23T23:06:33.052Z,101464
2017-10-23T23:09:02.070Z,101462
2017-10-23T23:11:30.171Z,101465
2017-10-23T23:13:58.353Z,101461
2017-10-23T23:16:26.469Z,101459
2017-10-23T23:18:54.777Z,101461
2017-10-23T23:21:22.899Z,101466
2017-10-23T23:23:51.855Z,101464
2017-10-23T23:26:19.942Z,101471
2017-10-23T23:28:48.064Z,101464
2017-10-23T23:31:16.158Z,101460
2017-10-23T23:33:45.791Z,101460
2017-10-23T23:36:13.900Z,101459
2017-10-23T23:38:41.984Z,101450
2017-10-23T23:41:10.115Z,101450
2017-10-23T23:43:38.199Z,101454
2017-10-23T23:46:06.337Z,101446
2017-10-23T23:48:34.436Z,101445
2017-10-23T23:51:02.564Z,101436
2017-10-23T23:53:30.671Z,101435
2017-10-23T23:55:58.761Z,101457
2017-10-23T23:58:27.661Z,101443
